sensor_id;sensor_type;location;lat;lon;timestamp;P1;durP1;ratioP1;P2;durP2;ratioP2
21138;SDS011;10727;43.600;1.444;2023-02-15T00:00:51;11.23;;;5.10;;
21138;SDS011;10727;43.600;1.444;2023-02-15T00:03:59;8.20;;;5.13;;
21138;SDS011;10727;43.600;1.444;2023-02-15T00:07:04;8.57;;;4.22;;
21138;SDS011;10727;43.600;1.444;2023-02-15T00:10:09;7.65;;;4.88;;
21138;SDS011;10727;43.600;1.444;2023-02-15T00:13:15;7.35;;;4.60;;
21138;SDS011;10727;43.600;1.444;2023-02-15T00:16:20;8.95;;;5.13;;
21138;SDS011;10727;43.600;1.444;2023-02-15T00:19:26;10.43;;;4.93;;
21138;SDS011;10727;43.600;1.444;2023-02-15T00:22:31;12.20;;;5.20;;
21138;SDS011;10727;43.600;1.444;2023-02-15T00:25:36;6.05;;;4.25;;
21138;SDS011;10727;43.600;1.444;2023-02-15T00:28:41;9.30;;;4.30;;
21138;SDS011;10727;43.600;1.444;2023-02-15T00:31:47;9.25;;;5.00;;
21138;SDS011;10727;43.600;1.444;2023-02-15T00:34:54;11.05;;;5.25;;
21138;SDS011;10727;43.600;1.444;2023-02-15T00:38:01;8.98;;;4.57;;
21138;SDS011;10727;43.600;1.444;2023-02-15T00:41:07;7.88;;;4.53;;
21138;SDS011;10727;43.600;1.444;2023-02-15T00:44:12;7.88;;;4.55;;
21138;SDS011;10727;43.600;1.444;2023-02-15T00:47:17;7.10;;;4.40;;
21138;SDS011;10727;43.600;1.444;2023-02-15T00:50:24;9.55;;;4.20;;
21138;SDS011;10727;43.600;1.444;2023-02-15T00:53:29;8.88;;;4.45;;
21138;SDS011;10727;43.600;1.444;2023-02-15T00:56:34;7.47;;;4.50;;
21138;SDS011;10727;43.600;1.444;2023-02-15T00:59:40;9.15;;;4.13;;
21138;SDS011;10727;43.600;1.444;2023-02-15T01:02:45;7.63;;;4.10;;
21138;SDS011;10727;43.600;1.444;2023-02-15T01:05:52;8.65;;;4.80;;
21138;SDS011;10727;43.600;1.444;2023-02-15T01:08:57;9.63;;;4.90;;
21138;SDS011;10727;43.600;1.444;2023-02-15T01:12:02;8.75;;;5.05;;
21138;SDS011;10727;43.600;1.444;2023-02-15T01:15:07;12.30;;;4.40;;
21138;SDS011;10727;43.600;1.444;2023-02-15T01:18:13;7.95;;;4.75;;
21138;SDS011;10727;43.600;1.444;2023-02-15T01:21:22;9.85;;;4.70;;
21138;SDS011;10727;43.600;1.444;2023-02-15T01:24:27;12.63;;;4.88;;
21138;SDS011;10727;43.600;1.444;2023-02-15T01:27:32;7.70;;;4.47;;
21138;SDS011;10727;43.600;1.444;2023-02-15T01:30:37;9.45;;;4.70;;
21138;SDS011;10727;43.600;1.444;2023-02-15T01:33:42;8.13;;;4.47;;
21138;SDS011;10727;43.600;1.444;2023-02-15T01:36:49;8.82;;;4.22;;
21138;SDS011;10727;43.600;1.444;2023-02-15T01:39:54;12.20;;;4.95;;
21138;SDS011;10727;43.600;1.444;2023-02-15T01:42:59;8.43;;;4.80;;
21138;SDS011;10727;43.600;1.444;2023-02-15T01:46:04;7.97;;;4.78;;
21138;SDS011;10727;43.600;1.444;2023-02-15T01:49:10;8.93;;;4.50;;
21138;SDS011;10727;43.600;1.444;2023-02-15T01:52:18;9.65;;;4.80;;
21138;SDS011;10727;43.600;1.444;2023-02-15T01:55:23;10.82;;;5.03;;
21138;SDS011;10727;43.600;1.444;2023-02-15T01:58:29;12.63;;;5.10;;
21138;SDS011;10727;43.600;1.444;2023-02-15T02:01:34;9.20;;;4.85;;
21138;SDS011;10727;43.600;1.444;2023-02-15T02:04:40;10.73;;;4.88;;
21138;SDS011;10727;43.600;1.444;2023-02-15T02:07:48;10.50;;;5.03;;
21138;SDS011;10727;43.600;1.444;2023-02-15T02:10:55;10.88;;;5.57;;
21138;SDS011;10727;43.600;1.444;2023-02-15T02:14:00;9.88;;;4.90;;
21138;SDS011;10727;43.600;1.444;2023-02-15T02:17:07;10.55;;;4.90;;
21138;SDS011;10727;43.600;1.444;2023-02-15T02:23:41;12.02;;;5.88;;
21138;SDS011;10727;43.600;1.444;2023-02-15T02:26:56;7.53;;;5.03;;
21138;SDS011;10727;43.600;1.444;2023-02-15T02:30:35;10.45;;;4.97;;
21138;SDS011;10727;43.600;1.444;2023-02-15T02:33:47;9.55;;;4.90;;
21138;SDS011;10727;43.600;1.444;2023-02-15T02:36:58;8.75;;;5.28;;
21138;SDS011;10727;43.600;1.444;2023-02-15T02:40:06;10.20;;;5.55;;
21138;SDS011;10727;43.600;1.444;2023-02-15T02:43:17;12.75;;;6.18;;
21138;SDS011;10727;43.600;1.444;2023-02-15T02:46:24;10.35;;;5.75;;
21138;SDS011;10727;43.600;1.444;2023-02-15T02:49:34;9.85;;;5.38;;
21138;SDS011;10727;43.600;1.444;2023-02-15T02:52:41;13.35;;;5.53;;
21138;SDS011;10727;43.600;1.444;2023-02-15T02:55:48;13.40;;;5.80;;
21138;SDS011;10727;43.600;1.444;2023-02-15T02:58:55;11.82;;;5.63;;
21138;SDS011;10727;43.600;1.444;2023-02-15T03:02:03;10.48;;;5.65;;
21138;SDS011;10727;43.600;1.444;2023-02-15T03:05:18;12.32;;;6.05;;
21138;SDS011;10727;43.600;1.444;2023-02-15T03:08:25;13.30;;;5.72;;
21138;SDS011;10727;43.600;1.444;2023-02-15T03:11:31;10.35;;;6.13;;
21138;SDS011;10727;43.600;1.444;2023-02-15T03:14:37;9.35;;;5.43;;
21138;SDS011;10727;43.600;1.444;2023-02-15T03:17:43;13.77;;;6.45;;
21138;SDS011;10727;43.600;1.444;2023-02-15T03:20:50;11.75;;;5.78;;
21138;SDS011;10727;43.600;1.444;2023-02-15T03:23:58;10.27;;;5.88;;
21138;SDS011;10727;43.600;1.444;2023-02-15T03:27:05;9.88;;;5.82;;
21138;SDS011;10727;43.600;1.444;2023-02-15T03:30:12;9.73;;;5.30;;
21138;SDS011;10727;43.600;1.444;2023-02-15T03:33:18;12.32;;;5.97;;
21138;SDS011;10727;43.600;1.444;2023-02-15T03:36:26;13.25;;;6.05;;
21138;SDS011;10727;43.600;1.444;2023-02-15T03:39:34;9.80;;;5.50;;
21138;SDS011;10727;43.600;1.444;2023-02-15T03:42:40;8.60;;;5.57;;
21138;SDS011;10727;43.600;1.444;2023-02-15T03:45:46;10.32;;;5.70;;
21138;SDS011;10727;43.600;1.444;2023-02-15T03:49:00;9.05;;;5.78;;
21138;SDS011;10727;43.600;1.444;2023-02-15T03:52:08;13.07;;;5.50;;
21138;SDS011;10727;43.600;1.444;2023-02-15T03:55:14;11.48;;;5.80;;
21138;SDS011;10727;43.600;1.444;2023-02-15T03:58:19;11.98;;;6.50;;
21138;SDS011;10727;43.600;1.444;2023-02-15T04:01:44;9.38;;;5.90;;
21138;SDS011;10727;43.600;1.444;2023-02-15T04:05:01;10.50;;;6.28;;
21138;SDS011;10727;43.600;1.444;2023-02-15T04:08:07;9.85;;;6.25;;
21138;SDS011;10727;43.600;1.444;2023-02-15T04:11:12;12.65;;;6.50;;
21138;SDS011;10727;43.600;1.444;2023-02-15T04:14:16;10.95;;;5.97;;
21138;SDS011;10727;43.600;1.444;2023-02-15T04:17:39;9.18;;;6.10;;
21138;SDS011;10727;43.600;1.444;2023-02-15T04:20:44;13.73;;;6.78;;
21138;SDS011;10727;43.600;1.444;2023-02-15T04:24:09;8.98;;;5.50;;
21138;SDS011;10727;43.600;1.444;2023-02-15T04:27:32;13.48;;;5.65;;
21138;SDS011;10727;43.600;1.444;2023-02-15T04:30:38;10.65;;;6.32;;
21138;SDS011;10727;43.600;1.444;2023-02-15T04:33:43;10.77;;;6.07;;
21138;SDS011;10727;43.600;1.444;2023-02-15T04:36:48;12.77;;;5.70;;
21138;SDS011;10727;43.600;1.444;2023-02-15T04:39:55;10.52;;;5.82;;
21138;SDS011;10727;43.600;1.444;2023-02-15T04:43:01;12.88;;;6.10;;
21138;SDS011;10727;43.600;1.444;2023-02-15T04:46:06;13.40;;;5.88;;
21138;SDS011;10727;43.600;1.444;2023-02-15T04:49:12;8.60;;;5.90;;
21138;SDS011;10727;43.600;1.444;2023-02-15T04:52:16;12.60;;;6.22;;
21138;SDS011;10727;43.600;1.444;2023-02-15T04:55:23;10.30;;;6.13;;
21138;SDS011;10727;43.600;1.444;2023-02-15T04:58:29;11.05;;;6.35;;
21138;SDS011;10727;43.600;1.444;2023-02-15T05:01:34;11.13;;;6.15;;
21138;SDS011;10727;43.600;1.444;2023-02-15T05:04:40;12.80;;;6.07;;
21138;SDS011;10727;43.600;1.444;2023-02-15T05:07:45;9.55;;;6.18;;
21138;SDS011;10727;43.600;1.444;2023-02-15T05:10:51;12.15;;;6.43;;
21138;SDS011;10727;43.600;1.444;2023-02-15T05:13:56;12.18;;;5.57;;
21138;SDS011;10727;43.600;1.444;2023-02-15T05:17:01;10.02;;;6.00;;
21138;SDS011;10727;43.600;1.444;2023-02-15T05:20:08;10.40;;;6.35;;
21138;SDS011;10727;43.600;1.444;2023-02-15T05:23:13;13.65;;;6.45;;
21138;SDS011;10727;43.600;1.444;2023-02-15T05:26:20;11.63;;;6.25;;
21138;SDS011;10727;43.600;1.444;2023-02-15T05:29:44;12.02;;;6.03;;
21138;SDS011;10727;43.600;1.444;2023-02-15T05:32:49;10.77;;;6.15;;
21138;SDS011;10727;43.600;1.444;2023-02-15T05:35:54;10.35;;;5.70;;
21138;SDS011;10727;43.600;1.444;2023-02-15T05:38:59;14.65;;;6.45;;
21138;SDS011;10727;43.600;1.444;2023-02-15T05:42:08;9.43;;;6.18;;
21138;SDS011;10727;43.600;1.444;2023-02-15T05:45:13;14.73;;;7.20;;
21138;SDS011;10727;43.600;1.444;2023-02-15T05:48:19;11.18;;;6.47;;
21138;SDS011;10727;43.600;1.444;2023-02-15T05:51:24;10.25;;;6.63;;
21138;SDS011;10727;43.600;1.444;2023-02-15T05:54:29;12.15;;;6.20;;
21138;SDS011;10727;43.600;1.444;2023-02-15T05:57:36;13.20;;;6.00;;
21138;SDS011;10727;43.600;1.444;2023-02-15T06:00:41;12.18;;;5.90;;
21138;SDS011;10727;43.600;1.444;2023-02-15T06:03:46;9.95;;;5.95;;
21138;SDS011;10727;43.600;1.444;2023-02-15T06:06:51;8.60;;;5.97;;
21138;SDS011;10727;43.600;1.444;2023-02-15T06:09:56;12.35;;;5.93;;
21138;SDS011;10727;43.600;1.444;2023-02-15T06:13:05;12.55;;;6.10;;
21138;SDS011;10727;43.600;1.444;2023-02-15T06:16:24;11.38;;;5.75;;
21138;SDS011;10727;43.600;1.444;2023-02-15T06:19:29;9.60;;;5.60;;
21138;SDS011;10727;43.600;1.444;2023-02-15T06:22:34;9.57;;;5.80;;
21138;SDS011;10727;43.600;1.444;2023-02-15T06:25:40;9.30;;;5.57;;
21138;SDS011;10727;43.600;1.444;2023-02-15T06:28:49;10.73;;;6.15;;
21138;SDS011;10727;43.600;1.444;2023-02-15T06:31:54;14.02;;;6.70;;
21138;SDS011;10727;43.600;1.444;2023-02-15T06:34:59;11.55;;;6.07;;
21138;SDS011;10727;43.600;1.444;2023-02-15T06:38:04;9.43;;;5.28;;
21138;SDS011;10727;43.600;1.444;2023-02-15T06:41:09;11.13;;;6.32;;
21138;SDS011;10727;43.600;1.444;2023-02-15T06:44:16;11.60;;;5.70;;
21138;SDS011;10727;43.600;1.444;2023-02-15T06:47:21;13.57;;;6.05;;
21138;SDS011;10727;43.600;1.444;2023-02-15T06:50:26;8.02;;;5.40;;
21138;SDS011;10727;43.600;1.444;2023-02-15T06:53:31;9.43;;;5.53;;
21138;SDS011;10727;43.600;1.444;2023-02-15T06:56:36;9.80;;;5.13;;
21138;SDS011;10727;43.600;1.444;2023-02-15T06:59:42;12.15;;;5.80;;
21138;SDS011;10727;43.600;1.444;2023-02-15T07:02:48;12.85;;;5.32;;
21138;SDS011;10727;43.600;1.444;2023-02-15T07:05:54;10.40;;;5.28;;
21138;SDS011;10727;43.600;1.444;2023-02-15T07:08:59;9.95;;;5.95;;
21138;SDS011;10727;43.600;1.444;2023-02-15T07:12:04;9.07;;;5.20;;
21138;SDS011;10727;43.600;1.444;2023-02-15T07:15:28;12.05;;;5.50;;
21138;SDS011;10727;43.600;1.444;2023-02-15T07:18:34;8.13;;;5.20;;
21138;SDS011;10727;43.600;1.444;2023-02-15T07:21:39;11.10;;;5.53;;
21138;SDS011;10727;43.600;1.444;2023-02-15T07:24:44;13.63;;;5.38;;
21138;SDS011;10727;43.600;1.444;2023-02-15T07:27:54;9.63;;;5.43;;
21138;SDS011;10727;43.600;1.444;2023-02-15T07:31:02;11.70;;;5.82;;
21138;SDS011;10727;43.600;1.444;2023-02-15T07:34:07;10.43;;;5.20;;
21138;SDS011;10727;43.600;1.444;2023-02-15T07:37:12;14.00;;;6.30;;
21138;SDS011;10727;43.600;1.444;2023-02-15T07:40:17;9.60;;;6.07;;
21138;SDS011;10727;43.600;1.444;2023-02-15T07:43:21;11.43;;;6.05;;
21138;SDS011;10727;43.600;1.444;2023-02-15T07:46:28;11.60;;;6.00;;
21138;SDS011;10727;43.600;1.444;2023-02-15T07:49:33;10.18;;;5.90;;
21138;SDS011;10727;43.600;1.444;2023-02-15T07:52:39;13.15;;;5.90;;
21138;SDS011;10727;43.600;1.444;2023-02-15T07:55:44;14.52;;;6.70;;
21138;SDS011;10727;43.600;1.444;2023-02-15T07:58:49;11.52;;;5.40;;
21138;SDS011;10727;43.600;1.444;2023-02-15T08:02:00;11.02;;;5.72;;
21138;SDS011;10727;43.600;1.444;2023-02-15T08:05:05;9.95;;;5.95;;
21138;SDS011;10727;43.600;1.444;2023-02-15T08:08:11;11.90;;;5.55;;
21138;SDS011;10727;43.600;1.444;2023-02-15T08:11:32;11.45;;;5.35;;
21138;SDS011;10727;43.600;1.444;2023-02-15T08:14:40;14.77;;;5.60;;
21138;SDS011;10727;43.600;1.444;2023-02-15T08:17:46;11.43;;;5.75;;
21138;SDS011;10727;43.600;1.444;2023-02-15T08:20:52;11.70;;;5.55;;
21138;SDS011;10727;43.600;1.444;2023-02-15T08:23:57;9.43;;;5.35;;
21138;SDS011;10727;43.600;1.444;2023-02-15T08:27:03;10.85;;;5.18;;
21138;SDS011;10727;43.600;1.444;2023-02-15T08:30:08;7.55;;;5.18;;
21138;SDS011;10727;43.600;1.444;2023-02-15T08:33:15;13.30;;;5.28;;
21138;SDS011;10727;43.600;1.444;2023-02-15T08:36:22;11.65;;;5.40;;
21138;SDS011;10727;43.600;1.444;2023-02-15T08:39:27;9.25;;;5.20;;
21138;SDS011;10727;43.600;1.444;2023-02-15T08:42:32;10.63;;;5.40;;
21138;SDS011;10727;43.600;1.444;2023-02-15T08:45:37;15.25;;;5.22;;
21138;SDS011;10727;43.600;1.444;2023-02-15T08:48:43;11.15;;;4.95;;
21138;SDS011;10727;43.600;1.444;2023-02-15T08:51:49;9.88;;;5.30;;
21138;SDS011;10727;43.600;1.444;2023-02-15T08:54:54;10.95;;;5.55;;
21138;SDS011;10727;43.600;1.444;2023-02-15T08:58:00;10.52;;;4.97;;
21138;SDS011;10727;43.600;1.444;2023-02-15T09:01:08;9.50;;;5.03;;
21138;SDS011;10727;43.600;1.444;2023-02-15T09:04:15;7.97;;;5.38;;
21138;SDS011;10727;43.600;1.444;2023-02-15T09:07:20;8.43;;;5.18;;
21138;SDS011;10727;43.600;1.444;2023-02-15T09:10:26;9.68;;;5.25;;
21138;SDS011;10727;43.600;1.444;2023-02-15T09:13:31;9.15;;;5.20;;
21138;SDS011;10727;43.600;1.444;2023-02-15T09:16:37;10.57;;;5.32;;
21138;SDS011;10727;43.600;1.444;2023-02-15T09:19:44;10.82;;;5.60;;
21138;SDS011;10727;43.600;1.444;2023-02-15T09:22:49;10.48;;;5.35;;
21138;SDS011;10727;43.600;1.444;2023-02-15T09:25:57;12.00;;;5.30;;
21138;SDS011;10727;43.600;1.444;2023-02-15T09:29:05;8.40;;;5.00;;
21138;SDS011;10727;43.600;1.444;2023-02-15T09:32:13;12.55;;;5.43;;
21138;SDS011;10727;43.600;1.444;2023-02-15T09:35:20;12.40;;;5.30;;
21138;SDS011;10727;43.600;1.444;2023-02-15T09:38:25;10.02;;;4.47;;
21138;SDS011;10727;43.600;1.444;2023-02-15T09:41:36;10.98;;;5.07;;
21138;SDS011;10727;43.600;1.444;2023-02-15T09:44:59;9.55;;;4.95;;
21138;SDS011;10727;43.600;1.444;2023-02-15T09:48:19;8.80;;;4.80;;
21138;SDS011;10727;43.600;1.444;2023-02-15T09:51:35;11.82;;;5.90;;
21138;SDS011;10727;43.600;1.444;2023-02-15T09:54:50;8.85;;;5.60;;
21138;SDS011;10727;43.600;1.444;2023-02-15T09:57:58;12.43;;;5.03;;
21138;SDS011;10727;43.600;1.444;2023-02-15T10:01:09;10.15;;;4.88;;
21138;SDS011;10727;43.600;1.444;2023-02-15T10:04:29;11.52;;;4.82;;
21138;SDS011;10727;43.600;1.444;2023-02-15T10:07:47;10.65;;;5.28;;
21138;SDS011;10727;43.600;1.444;2023-02-15T10:11:00;9.40;;;4.50;;
21138;SDS011;10727;43.600;1.444;2023-02-15T10:18:06;8.20;;;4.53;;
21138;SDS011;10727;43.600;1.444;2023-02-15T10:21:15;15.32;;;5.50;;
21138;SDS011;10727;43.600;1.444;2023-02-15T10:24:36;8.85;;;4.88;;
21138;SDS011;10727;43.600;1.444;2023-02-15T10:27:45;7.65;;;4.80;;
21138;SDS011;10727;43.600;1.444;2023-02-15T10:30:50;10.05;;;4.85;;
21138;SDS011;10727;43.600;1.444;2023-02-15T10:34:00;12.40;;;5.72;;
21138;SDS011;10727;43.600;1.444;2023-02-15T10:37:12;6.93;;;4.70;;
21138;SDS011;10727;43.600;1.444;2023-02-15T10:40:24;8.52;;;4.80;;
21138;SDS011;10727;43.600;1.444;2023-02-15T10:47:01;9.02;;;4.57;;
21138;SDS011;10727;43.600;1.444;2023-02-15T10:50:20;8.82;;;5.00;;
21138;SDS011;10727;43.600;1.444;2023-02-15T10:53:34;10.23;;;4.88;;
21138;SDS011;10727;43.600;1.444;2023-02-15T10:56:48;7.53;;;4.25;;
21138;SDS011;10727;43.600;1.444;2023-02-15T10:59:58;9.77;;;4.85;;
21138;SDS011;10727;43.600;1.444;2023-02-15T11:03:11;12.18;;;5.13;;
21138;SDS011;10727;43.600;1.444;2023-02-15T11:06:22;9.05;;;5.28;;
21138;SDS011;10727;43.600;1.444;2023-02-15T11:09:29;8.02;;;5.40;;
21138;SDS011;10727;43.600;1.444;2023-02-15T11:12:39;10.35;;;5.55;;
21138;SDS011;10727;43.600;1.444;2023-02-15T11:15:46;8.70;;;5.20;;
21138;SDS011;10727;43.600;1.444;2023-02-15T11:18:53;10.63;;;6.13;;
21138;SDS011;10727;43.600;1.444;2023-02-15T11:21:59;7.70;;;4.82;;
21138;SDS011;10727;43.600;1.444;2023-02-15T11:25:14;10.52;;;5.45;;
21138;SDS011;10727;43.600;1.444;2023-02-15T11:28:24;12.02;;;4.55;;
21138;SDS011;10727;43.600;1.444;2023-02-15T11:31:31;9.38;;;4.68;;
21138;SDS011;10727;43.600;1.444;2023-02-15T11:34:43;8.43;;;5.40;;
21138;SDS011;10727;43.600;1.444;2023-02-15T11:37:50;6.85;;;4.55;;
21138;SDS011;10727;43.600;1.444;2023-02-15T11:40:57;8.65;;;5.10;;
21138;SDS011;10727;43.600;1.444;2023-02-15T11:44:06;9.90;;;5.28;;
21138;SDS011;10727;43.600;1.444;2023-02-15T11:47:12;7.65;;;4.40;;
21138;SDS011;10727;43.600;1.444;2023-02-15T11:50:18;7.80;;;3.88;;
21138;SDS011;10727;43.600;1.444;2023-02-15T11:53:25;9.65;;;4.38;;
21138;SDS011;10727;43.600;1.444;2023-02-15T11:56:31;6.75;;;3.90;;
21138;SDS011;10727;43.600;1.444;2023-02-15T11:59:39;48.42;;;10.45;;
21138;SDS011;10727;43.600;1.444;2023-02-15T12:02:46;20.55;;;7.68;;
21138;SDS011;10727;43.600;1.444;2023-02-15T12:05:53;9.73;;;5.13;;
21138;SDS011;10727;43.600;1.444;2023-02-15T12:09:03;9.43;;;4.45;;
21138;SDS011;10727;43.600;1.444;2023-02-15T12:12:20;8.15;;;4.70;;
21138;SDS011;10727;43.600;1.444;2023-02-15T12:15:30;6.70;;;3.78;;
21138;SDS011;10727;43.600;1.444;2023-02-15T12:18:38;5.95;;;3.75;;
21138;SDS011;10727;43.600;1.444;2023-02-15T12:21:44;6.32;;;4.07;;
21138;SDS011;10727;43.600;1.444;2023-02-15T12:24:54;8.10;;;5.72;;
21138;SDS011;10727;43.600;1.444;2023-02-15T12:27:59;7.35;;;4.35;;
21138;SDS011;10727;43.600;1.444;2023-02-15T12:31:07;6.25;;;4.25;;
21138;SDS011;10727;43.600;1.444;2023-02-15T12:34:13;6.53;;;4.22;;
21138;SDS011;10727;43.600;1.444;2023-02-15T12:37:22;5.88;;;3.50;;
21138;SDS011;10727;43.600;1.444;2023-02-15T12:40:28;5.22;;;3.53;;
21138;SDS011;10727;43.600;1.444;2023-02-15T12:43:34;5.80;;;3.70;;
21138;SDS011;10727;43.600;1.444;2023-02-15T12:46:41;8.88;;;4.07;;
21138;SDS011;10727;43.600;1.444;2023-02-15T12:50:03;6.25;;;3.67;;
21138;SDS011;10727;43.600;1.444;2023-02-15T12:53:13;6.72;;;3.53;;
21138;SDS011;10727;43.600;1.444;2023-02-15T12:56:20;9.10;;;3.70;;
21138;SDS011;10727;43.600;1.444;2023-02-15T12:59:31;5.82;;;3.70;;
21138;SDS011;10727;43.600;1.444;2023-02-15T13:02:41;10.43;;;3.50;;
21138;SDS011;10727;43.600;1.444;2023-02-15T13:05:48;8.90;;;3.53;;
21138;SDS011;10727;43.600;1.444;2023-02-15T13:08:57;9.65;;;4.10;;
21138;SDS011;10727;43.600;1.444;2023-02-15T13:12:10;11.30;;;3.72;;
21138;SDS011;10727;43.600;1.444;2023-02-15T13:15:22;10.75;;;3.80;;
21138;SDS011;10727;43.600;1.444;2023-02-15T13:18:31;6.45;;;3.53;;
21138;SDS011;10727;43.600;1.444;2023-02-15T13:21:37;10.13;;;3.63;;
21138;SDS011;10727;43.600;1.444;2023-02-15T13:24:43;5.63;;;3.58;;
21138;SDS011;10727;43.600;1.444;2023-02-15T13:27:51;9.70;;;3.45;;
21138;SDS011;10727;43.600;1.444;2023-02-15T13:30:57;13.80;;;3.70;;
21138;SDS011;10727;43.600;1.444;2023-02-15T13:34:07;9.55;;;5.82;;
21138;SDS011;10727;43.600;1.444;2023-02-15T13:37:15;5.57;;;3.38;;
21138;SDS011;10727;43.600;1.444;2023-02-15T13:40:22;7.57;;;3.50;;
21138;SDS011;10727;43.600;1.444;2023-02-15T13:43:36;7.43;;;3.63;;
21138;SDS011;10727;43.600;1.444;2023-02-15T13:46:45;10.23;;;3.72;;
21138;SDS011;10727;43.600;1.444;2023-02-15T13:49:59;18.00;;;4.13;;
21138;SDS011;10727;43.600;1.444;2023-02-15T13:53:13;8.27;;;3.30;;
21138;SDS011;10727;43.600;1.444;2023-02-15T13:56:21;10.68;;;3.42;;
21138;SDS011;10727;43.600;1.444;2023-02-15T13:59:32;6.68;;;3.10;;
21138;SDS011;10727;43.600;1.444;2023-02-15T14:06:18;10.43;;;3.80;;
21138;SDS011;10727;43.600;1.444;2023-02-15T14:09:29;7.72;;;3.17;;
21138;SDS011;10727;43.600;1.444;2023-02-15T14:12:42;7.75;;;3.22;;
21138;SDS011;10727;43.600;1.444;2023-02-15T14:15:52;7.20;;;2.80;;
21138;SDS011;10727;43.600;1.444;2023-02-15T14:19:03;17.90;;;3.20;;
21138;SDS011;10727;43.600;1.444;2023-02-15T14:22:13;6.78;;;3.40;;
21138;SDS011;10727;43.600;1.444;2023-02-15T14:25:21;5.97;;;3.03;;
21138;SDS011;10727;43.600;1.444;2023-02-15T14:28:34;22.60;;;3.65;;
21138;SDS011;10727;43.600;1.444;2023-02-15T14:31:41;11.23;;;3.20;;
21138;SDS011;10727;43.600;1.444;2023-02-15T14:34:48;7.93;;;2.97;;
21138;SDS011;10727;43.600;1.444;2023-02-15T14:37:58;4.38;;;2.85;;
21138;SDS011;10727;43.600;1.444;2023-02-15T14:41:04;6.10;;;2.80;;
21138;SDS011;10727;43.600;1.444;2023-02-15T14:44:12;6.13;;;3.00;;
21138;SDS011;10727;43.600;1.444;2023-02-15T14:47:19;3.75;;;2.80;;
21138;SDS011;10727;43.600;1.444;2023-02-15T14:50:40;7.07;;;2.83;;
21138;SDS011;10727;43.600;1.444;2023-02-15T14:53:47;6.60;;;3.45;;
21138;SDS011;10727;43.600;1.444;2023-02-15T15:00:30;4.18;;;2.90;;
21138;SDS011;10727;43.600;1.444;2023-02-15T15:03:35;6.40;;;2.95;;
21138;SDS011;10727;43.600;1.444;2023-02-15T15:06:41;8.48;;;3.20;;
21138;SDS011;10727;43.600;1.444;2023-02-15T15:09:59;4.30;;;2.78;;
21138;SDS011;10727;43.600;1.444;2023-02-15T15:16:29;6.13;;;3.10;;
21138;SDS011;10727;43.600;1.444;2023-02-15T15:26:40;6.55;;;3.50;;
21138;SDS011;10727;43.600;1.444;2023-02-15T15:29:49;6.15;;;3.22;;
21138;SDS011;10727;43.600;1.444;2023-02-15T15:32:56;5.72;;;3.20;;
21138;SDS011;10727;43.600;1.444;2023-02-15T15:36:08;6.20;;;3.10;;
21138;SDS011;10727;43.600;1.444;2023-02-15T15:43:13;7.80;;;3.53;;
21138;SDS011;10727;43.600;1.444;2023-02-15T15:49:46;3.72;;;2.83;;
21138;SDS011;10727;43.600;1.444;2023-02-15T15:52:52;6.18;;;3.25;;
21138;SDS011;10727;43.600;1.444;2023-02-15T15:55:59;6.22;;;3.17;;
21138;SDS011;10727;43.600;1.444;2023-02-15T15:59:07;5.68;;;3.15;;
21138;SDS011;10727;43.600;1.444;2023-02-15T16:02:13;6.38;;;3.13;;
21138;SDS011;10727;43.600;1.444;2023-02-15T16:05:19;6.97;;;2.88;;
21138;SDS011;10727;43.600;1.444;2023-02-15T16:08:28;4.55;;;3.10;;
21138;SDS011;10727;43.600;1.444;2023-02-15T16:11:33;3.92;;;2.92;;
21138;SDS011;10727;43.600;1.444;2023-02-15T16:14:43;3.95;;;2.60;;
21138;SDS011;10727;43.600;1.444;2023-02-15T16:17:53;4.75;;;2.97;;
21138;SDS011;10727;43.600;1.444;2023-02-15T16:21:00;6.78;;;3.17;;
21138;SDS011;10727;43.600;1.444;2023-02-15T16:27:35;6.43;;;3.63;;
21138;SDS011;10727;43.600;1.444;2023-02-15T16:30:42;5.15;;;3.45;;
21138;SDS011;10727;43.600;1.444;2023-02-15T16:33:48;6.00;;;3.50;;
21138;SDS011;10727;43.600;1.444;2023-02-15T16:37:11;3.80;;;3.38;;
21138;SDS011;10727;43.600;1.444;2023-02-15T16:43:40;6.30;;;3.92;;
21138;SDS011;10727;43.600;1.444;2023-02-15T16:46:47;6.45;;;3.60;;
21138;SDS011;10727;43.600;1.444;2023-02-15T16:49:54;6.72;;;4.28;;
21138;SDS011;10727;43.600;1.444;2023-02-15T16:53:00;5.35;;;3.63;;
21138;SDS011;10727;43.600;1.444;2023-02-15T16:56:06;7.97;;;4.03;;
21138;SDS011;10727;43.600;1.444;2023-02-15T16:59:16;5.63;;;3.90;;
21138;SDS011;10727;43.600;1.444;2023-02-15T17:02:26;6.07;;;3.85;;
21138;SDS011;10727;43.600;1.444;2023-02-15T17:05:33;7.05;;;3.90;;
21138;SDS011;10727;43.600;1.444;2023-02-15T17:08:41;6.13;;;3.65;;
21138;SDS011;10727;43.600;1.444;2023-02-15T17:11:46;6.43;;;3.65;;
21138;SDS011;10727;43.600;1.444;2023-02-15T17:14:53;6.43;;;3.90;;
21138;SDS011;10727;43.600;1.444;2023-02-15T17:18:02;4.32;;;3.72;;
21138;SDS011;10727;43.600;1.444;2023-02-15T17:21:09;7.05;;;4.28;;
21138;SDS011;10727;43.600;1.444;2023-02-15T17:24:15;6.35;;;4.15;;
21138;SDS011;10727;43.600;1.444;2023-02-15T17:27:23;7.32;;;3.95;;
21138;SDS011;10727;43.600;1.444;2023-02-15T17:30:29;7.85;;;3.92;;
21138;SDS011;10727;43.600;1.444;2023-02-15T17:33:37;6.80;;;3.90;;
21138;SDS011;10727;43.600;1.444;2023-02-15T17:36:56;8.98;;;4.47;;
21138;SDS011;10727;43.600;1.444;2023-02-15T17:40:06;9.63;;;4.22;;
21138;SDS011;10727;43.600;1.444;2023-02-15T17:43:12;6.90;;;4.35;;
21138;SDS011;10727;43.600;1.444;2023-02-15T17:46:17;7.15;;;4.28;;
21138;SDS011;10727;43.600;1.444;2023-02-15T17:49:26;8.82;;;4.97;;
21138;SDS011;10727;43.600;1.444;2023-02-15T17:52:36;8.60;;;4.70;;
21138;SDS011;10727;43.600;1.444;2023-02-15T17:55:42;6.72;;;4.63;;
21138;SDS011;10727;43.600;1.444;2023-02-15T17:58:47;7.13;;;4.97;;
21138;SDS011;10727;43.600;1.444;2023-02-15T18:01:52;6.97;;;4.97;;
21138;SDS011;10727;43.600;1.444;2023-02-15T18:05:15;9.48;;;4.70;;
21138;SDS011;10727;43.600;1.444;2023-02-15T18:08:38;7.20;;;4.63;;
21138;SDS011;10727;43.600;1.444;2023-02-15T18:12:01;8.00;;;4.57;;
21138;SDS011;10727;43.600;1.444;2023-02-15T18:15:07;9.30;;;4.78;;
21138;SDS011;10727;43.600;1.444;2023-02-15T18:18:12;6.97;;;4.88;;
21138;SDS011;10727;43.600;1.444;2023-02-15T18:21:19;10.35;;;5.38;;
21138;SDS011;10727;43.600;1.444;2023-02-15T18:24:27;10.65;;;5.35;;
21138;SDS011;10727;43.600;1.444;2023-02-15T18:27:32;7.88;;;5.88;;
21138;SDS011;10727;43.600;1.444;2023-02-15T18:30:38;8.95;;;5.80;;
21138;SDS011;10727;43.600;1.444;2023-02-15T18:33:44;7.90;;;5.75;;
21138;SDS011;10727;43.600;1.444;2023-02-15T18:36:52;9.70;;;5.28;;
21138;SDS011;10727;43.600;1.444;2023-02-15T18:39:58;11.38;;;5.60;;
21138;SDS011;10727;43.600;1.444;2023-02-15T18:43:07;11.82;;;5.88;;
21138;SDS011;10727;43.600;1.444;2023-02-15T18:46:13;12.52;;;6.13;;
21138;SDS011;10727;43.600;1.444;2023-02-15T18:49:18;10.02;;;6.15;;
21138;SDS011;10727;43.600;1.444;2023-02-15T18:52:25;10.20;;;5.72;;
21138;SDS011;10727;43.600;1.444;2023-02-15T18:55:32;10.32;;;6.10;;
21138;SDS011;10727;43.600;1.444;2023-02-15T18:58:38;8.68;;;6.38;;
21138;SDS011;10727;43.600;1.444;2023-02-15T19:01:45;8.85;;;6.18;;
21138;SDS011;10727;43.600;1.444;2023-02-15T19:04:50;9.40;;;6.25;;
21138;SDS011;10727;43.600;1.444;2023-02-15T19:07:56;9.27;;;6.47;;
21138;SDS011;10727;43.600;1.444;2023-02-15T19:11:02;11.13;;;6.53;;
21138;SDS011;10727;43.600;1.444;2023-02-15T19:14:10;9.85;;;7.15;;
21138;SDS011;10727;43.600;1.444;2023-02-15T19:17:24;11.52;;;6.75;;
21138;SDS011;10727;43.600;1.444;2023-02-15T19:20:31;12.00;;;7.43;;
21138;SDS011;10727;43.600;1.444;2023-02-15T19:23:37;11.48;;;6.80;;
21138;SDS011;10727;43.600;1.444;2023-02-15T19:26:42;11.85;;;6.82;;
21138;SDS011;10727;43.600;1.444;2023-02-15T19:29:48;11.20;;;6.97;;